Magnolia State — KGNQ — position and weather

sailwx.info

Track history (hours):
 
Tides and Currents Weather Stations Pressure Air Temp Water Temp Dewpoint Dewpoint Depression Visibility Wind Speed Wind Dir Waves Ship Positions

Magnolia State

Owner: Crowley Petroleum Services, Inc., Jacksonville, FL. More information available from US FCC via Universal Licensing System and Coast Guard Vessel Documentation Center.

Last reported at 2018-Jul-21 23:20 UTC. Time now 2018-Jul-22 06:52 UTC.
Position N 25°14' W 080°05'.

Length 186 m; draft 8.6 m.

Type: Tanker. MMSI: 338302000.

Date/timePositionNaut miles runAvg speedWind from/ knotsBaromVisibWave heightAir tempDewpointWater temp
2018-Jul-21 23:20N 25°14' W 080°05'511.8
2018-Jul-21 22:56N 25°19' W 080°03'511.5
2018-Jul-21 22:30N 25°24' W 080°02'611.5
2018-Jul-21 22:00N 25°29' W 080°01'611.4
2018-Jul-21 21:30N 25°35' W 080°01'611.1
2018-Jul-21 21:00N 25°40' W 080°01'510.9
2018-Jul-21 20:30N 25°46' W 080°01'510.6
2018-Jul-21 20:00N 25°51' W 080°00'510.7
2018-Jul-21 19:30N 25°56' W 079°60'510.8
2018-Jul-21 19:00N 26°02' W 079°59'510.8
2018-Jul-21 18:30N 26°07' W 079°59'510.8
2018-Jul-21 18:00N 26°13' W 079°58'510.7
2018-Jul-21 17:30N 26°18' W 079°57'510.3
2018-Jul-21 17:00N 26°23' W 079°57'510.4
2018-Jul-21 16:30N 26°28' W 079°55'510.4
2018-Jul-21 16:00N 26°33' W 079°55'610.5
2018-Jul-21 15:28N 26°39' W 079°54'510.7
2018-Jul-21 15:00N 26°44' W 079°53'510.7
2018-Jul-21 14:30N 26°49' W 079°53'1110.6
2018-Jul-21 13:30N 26°60' W 079°52'510.5
2018-Jul-21 13:00N 27°05' W 079°52'1010.6
2018-Jul-21 12:02N 27°15' W 079°54'410.4
2018-Jul-21 11:41N 27°19' W 079°54'210.4
2018-Jul-21 11:30N 27°21' W 079°55'1612.3
2018-Jul-21 10:13N 27°36' W 079°58'315.0
2018-Jul-21 10:00N 27°39' W 079°58'59413.0
2018-Jul-19 12:15N 36°39' W 075°03'415.6
2018-Jul-19 12:00N 36°43' W 075°03'815.6
2018-Jul-19 11:30N 36°50' W 075°02'815.7
2018-Jul-19 11:00N 36°58' W 075°00'815.5
2018-Jul-19 10:30N 37°06' W 074°58'915.4
2018-Jul-19 09:56N 37°14' W 074°55'815.5
2018-Jul-19 09:25N 37°22' W 074°53'715.6
2018-Jul-19 08:58N 37°29' W 074°51'915.6
2018-Jul-19 08:22N 37°38' W 074°48'715.7
2018-Jul-19 07:53N 37°45' W 074°46'615.5
2018-Jul-19 07:31N 37°51' W 074°44'815.4
2018-Jul-19 07:00N 37°58' W 074°42'815.2
2018-Jul-19 06:30N 38°06' W 074°40'714.8
2018-Jul-19 06:00N 38°13' W 074°39'714.3
2018-Jul-19 05:30N 38°20' W 074°40'714.6
2018-Jul-19 05:00N 38°27' W 074°44'714.4
2018-Jul-19 04:30N 38°33' W 074°49'714.4
2018-Jul-19 04:00N 38°39' W 074°54'914.4
2018-Jul-19 03:24N 38°46' W 075°01'513.2
2018-Jul-19 03:01N 38°50' W 075°04'510.8
2018-Jul-19 02:31N 38°55' W 075°06'612.4
2018-Jul-19 02:00N 39°01' W 075°09'713.4
2018-Jul-19 01:30N 39°07' W 075°13'714.5
2018-Jul-19 01:00N 39°13' W 075°18'815.3
2018-Jul-19 00:30N 39°19' W 075°24'815.3
2018-Jul-19 00:01N 39°25' W 075°31'713.4
2018-Jul-18 23:30N 39°31' W 075°33'713.2
2018-Jul-18 23:00N 39°38' W 075°34'612.5
2018-Jul-18 22:30N 39°43' W 075°30'610.9
2018-Jul-18 22:00N 39°48' W 075°26'4 9.2
2018-Jul-18 21:30N 39°50' W 075°21'5 9.4
2018-Jul-18 21:00N 39°51' W 075°15'2 3.8
2018-Jul-18 20:30N 39°52' W 075°13'0 0.0
2018-Jul-18 20:00N 39°52' W 075°13'0 0.0
2018-Jul-18 19:30N 39°52' W 075°13'0 0.0
2018-Jul-18 19:00N 39°52' W 075°13'0 0.0
2018-Jul-18 18:30N 39°52' W 075°13'0 0.0
2018-Jul-18 18:00N 39°52' W 075°13'0 0.0
2018-Jul-18 17:30N 39°52' W 075°13'0 0.0
2018-Jul-18 17:00N 39°52' W 075°13'0 0.0
2018-Jul-18 16:30N 39°52' W 075°13'0 0.0
2018-Jul-18 16:00N 39°52' W 075°13'0 0.0
2018-Jul-18 15:30N 39°52' W 075°13'0 0.0
2018-Jul-18 15:00N 39°52' W 075°13'0 0.0
2018-Jul-18 14:30N 39°52' W 075°13'0 0.0
2018-Jul-18 13:30N 39°52' W 075°13'0 0.0
2018-Jul-18 13:00N 39°52' W 075°13'0 0.0
2018-Jul-18 12:30N 39°52' W 075°13'0 0.0
2018-Jul-18 12:00N 39°52' W 075°13'0 0.0
2018-Jul-18 11:30N 39°52' W 075°13'0 0.0
2018-Jul-18 10:30N 39°52' W 075°13'0 0.0
2018-Jul-18 09:48N 39°52' W 075°13'0 0.0
2018-Jul-18 09:30N 39°52' W 075°13'0 0.0
2018-Jul-18 09:00N 39°52' W 075°13'0 0.0
2018-Jul-18 08:30N 39°52' W 075°13'0 0.0
2018-Jul-18 08:00N 39°52' W 075°13'0 0.0
2018-Jul-18 07:30N 39°52' W 075°13'0 0.0
2018-Jul-18 07:00N 39°52' W 075°13'0 0.0
2018-Jul-18 06:30N 39°52' W 075°13'0 0.0
2018-Jul-18 05:54N 39°52' W 075°13'0 0.0
2018-Jul-18 05:30N 39°52' W 075°13'0 0.0
2018-Jul-18 05:00N 39°52' W 075°13'0 0.0
2018-Jul-18 04:30N 39°52' W 075°13'0 0.0
2018-Jul-18 04:00N 39°52' W 075°13'0 0.0
2018-Jul-18 03:30N 39°52' W 075°13'0 0.0
2018-Jul-18 03:00N 39°52' W 075°13'0 0.0
2018-Jul-18 02:30N 39°52' W 075°13'0 0.0
2018-Jul-18 02:00N 39°52' W 075°13'0 0.0
2018-Jul-18 01:30N 39°52' W 075°13'0 0.0
2018-Jul-18 01:00N 39°52' W 075°13'0 0.0
2018-Jul-18 00:30N 39°52' W 075°13'0 0.0
2018-Jul-18 00:00N 39°52' W 075°13'0 0.0
2018-Jul-17 23:30N 39°52' W 075°13'0 0.0
2018-Jul-17 23:00N 39°52' W 075°13'0 0.0
2018-Jul-17 22:30N 39°52' W 075°13'0 0.0
2018-Jul-17 22:00N 39°52' W 075°13'0 0.0
2018-Jul-17 21:30N 39°52' W 075°13'0 0.0
2018-Jul-17 21:00N 39°52' W 075°13'0 0.1
2018-Jul-17 20:31N 39°52' W 075°13'1 2.3
2018-Jul-17 20:00N 39°51' W 075°14'4 8.4
2018-Jul-17 19:30N 39°51' W 075°20'4 9.1
2018-Jul-17 19:01N 39°48' W 075°25'510.5
2018-Jul-17 18:30N 39°45' W 075°30'5 9.6
2018-Jul-17 18:01N 39°40' W 075°32'611.2
2018-Jul-17 17:30N 39°35' W 075°33'713.7
2018-Jul-17 17:00N 39°28' W 075°34'713.8
2018-Jul-17 16:30N 39°23' W 075°28'714.0
2018-Jul-17 16:00N 39°17' W 075°22'713.7
2018-Jul-17 15:30N 39°12' W 075°17'713.9
2018-Jul-17 15:00N 39°06' W 075°12'713.8
2018-Jul-17 14:30N 38°60' W 075°08'713.8
2018-Jul-17 13:59N 38°53' W 075°05'611.2
2018-Jul-17 13:28N 38°48' W 075°03'510.0
2018-Jul-17 13:00N 38°45' W 074°58'611.1
2018-Jul-17 12:30N 38°41' W 074°53'612.0
2018-Jul-17 12:00N 38°36' W 074°49'5 9.5
2018-Jul-17 11:30N 38°31' W 074°51'1 0.4
2018-Jul-17 09:58N 38°31' W 074°51'0 0.1
2018-Jul-17 09:28N 38°31' W 074°51'0 0.0
2018-Jul-17 08:58N 38°31' W 074°51'0 0.0
2018-Jul-17 07:40N 38°31' W 074°51'0 0.1
2018-Jul-17 07:22N 38°31' W 074°51'0 0.0
2018-Jul-17 06:25N 38°31' W 074°51'0 0.0
2018-Jul-17 04:19N 38°31' W 074°51'0 0.0
2018-Jul-17 03:07N 38°31' W 074°51'0 0.0
2018-Jul-17 02:55N 38°31' W 074°52'0 0.0
2018-Jul-17 02:28N 38°31' W 074°52'0 0.0
2018-Jul-17 01:58N 38°31' W 074°52'0 0.0
2018-Jul-16 14:40N 38°31' W 074°52'0 0.0
2018-Jul-16 14:25N 38°31' W 074°52'0 0.0
2018-Jul-16 13:55N 38°31' W 074°52'0 0.0
2018-Jul-16 13:22N 38°31' W 074°52'0 0.0
2018-Jul-16 12:52N 38°31' W 074°52'0 0.0
2018-Jul-16 12:28N 38°31' W 074°52'0 0.0
2018-Jul-16 11:58N 38°31' W 074°52'0 0.0
2018-Jul-16 11:28N 38°31' W 074°51'0 0.1
2018-Jul-16 10:55N 38°31' W 074°51'0 0.2
2018-Jul-16 10:28N 38°31' W 074°51'0 0.1
2018-Jul-16 09:55N 38°31' W 074°51'0 0.1
2018-Jul-16 09:28N 38°31' W 074°51'0 0.0
2018-Jul-16 08:55N 38°31' W 074°51'0 0.0
2018-Jul-16 08:28N 38°31' W 074°51'0 0.0
2018-Jul-16 07:58N 38°31' W 074°51'0 0.0
2018-Jul-16 07:28N 38°31' W 074°51'0 0.0
2018-Jul-16 06:58N 38°31' W 074°51'0 0.1
2018-Jul-16 06:13N 38°31' W 074°51'0 0.1
2018-Jul-16 05:52N 38°31' W 074°51'0 0.1
2018-Jul-16 05:07N 38°31' W 074°51'0 0.1
2018-Jul-16 04:58N 38°31' W 074°51'0 0.1
2018-Jul-16 04:28N 38°31' W 074°51'0 0.1
2018-Jul-16 03:58N 38°31' W 074°51'0 0.1
2018-Jul-16 03:13N 38°31' W 074°51'0 0.0
2018-Jul-16 02:58N 38°31' W 074°51'0 0.0
2018-Jul-16 01:43N 38°31' W 074°52'0 0.0
2018-Jul-15 14:25N 38°31' W 074°52'0 0.0
2018-Jul-15 13:55N 38°31' W 074°52'0 0.0
2018-Jul-15 13:28N 38°31' W 074°52'0 0.0
2018-Jul-15 12:58N 38°31' W 074°52'0 0.0
2018-Jul-15 12:28N 38°31' W 074°52'0 0.0
2018-Jul-15 11:58N 38°31' W 074°52'0 0.0
2018-Jul-15 11:28N 38°31' W 074°52'0 0.0
2018-Jul-15 10:58N 38°31' W 074°51'0 0.0
2018-Jul-15 10:25N 38°31' W 074°51'0 0.1
2018-Jul-15 09:58N 38°31' W 074°51'0 0.1
2018-Jul-15 09:28N 38°31' W 074°51'0 0.1
2018-Jul-15 08:58N 38°31' W 074°51'0 0.1
2018-Jul-15 08:28N 38°31' W 074°51'0 0.1
2018-Jul-15 07:55N 38°31' W 074°51'0 0.1
2018-Jul-15 07:28N 38°31' W 074°51'0 0.0
2018-Jul-15 06:58N 38°31' W 074°51'0 0.0
2018-Jul-15 06:28N 38°31' W 074°51'0 0.1
2018-Jul-15 05:58N 38°31' W 074°51'0 0.1
2018-Jul-15 05:28N 38°31' W 074°51'0 0.1
2018-Jul-15 04:58N 38°31' W 074°51'0 0.1
2018-Jul-15 04:28N 38°31' W 074°51'0 0.1
2018-Jul-15 03:58N 38°31' W 074°51'0 0.1
2018-Jul-15 03:28N 38°31' W 074°51'0 0.0
2018-Jul-15 02:58N 38°31' W 074°51'0 0.1
2018-Jul-15 02:28N 38°31' W 074°51'0 0.0
2018-Jul-14 20:34N 38°31' W 074°52'0 0.3
2018-Jul-14 20:28N 38°31' W 074°51'0 0.3
2018-Jul-14 19:58N 38°31' W 074°51'0 0.1
2018-Jul-14 19:28N 38°31' W 074°51'0 0.0
2018-Jul-14 18:58N 38°31' W 074°51'0 0.1
2018-Jul-14 18:25N 38°31' W 074°51'0 0.5
2018-Jul-14 18:00N 38°31' W 074°51'3 5.8
2018-Jul-14 17:30N 38°32' W 074°48'4 7.7
2018-Jul-14 16:56N 38°30' W 074°43'4 9.3
2018-Jul-14 16:29N 38°26' W 074°40'510.6
2018-Jul-14 16:00N 38°21' W 074°40'510.4
2018-Jul-14 15:30N 38°16' W 074°39'510.4
2018-Jul-14 15:00N 38°11' W 074°39'1110.5
2018-Jul-14 14:00N 38°00' W 074°40'510.6
2018-Jul-14 13:30N 37°55' W 074°40'510.7
2018-Jul-14 13:00N 37°50' W 074°40'510.4
2018-Jul-14 12:30N 37°45' W 074°40'510.3
2018-Jul-14 12:00N 37°39' W 074°41'510.5
2018-Jul-14 11:30N 37°34' W 074°41'510.4
2018-Jul-14 11:00N 37°29' W 074°41'510.4
2018-Jul-14 10:29N 37°23' W 074°41'510.2
2018-Jul-14 10:00N 37°19' W 074°41'510.2
2018-Jul-14 09:30N 37°14' W 074°40'5 9.9
2018-Jul-14 09:00N 37°09' W 074°40'5 9.6
2018-Jul-14 08:29N 37°04' W 074°40'66114.6
2018-Jul-12 11:09N 26°54' W 079°43'417.6
2018-Jul-12 10:56N 26°51' W 079°44'3017.8
2018-Jul-12 09:17N 26°21' W 079°47'517.7
2018-Jul-12 08:58N 26°16' W 079°48'817.6
2018-Jul-12 08:30N 26°08' W 079°49'917.7
2018-Jul-12 08:00N 25°59' W 079°50'917.7
2018-Jul-12 07:30N 25°50' W 079°51'917.9
2018-Jul-12 07:00N 25°41' W 079°53'917.8
2018-Jul-12 06:30N 25°33' W 079°55'917.9
2018-Jul-12 06:00N 25°24' W 079°57'  
Track history (hours):
 
Tides and Currents Weather Stations Pressure Air Temp Water Temp Dewpoint Dewpoint Depression Visibility Wind Speed Wind Dir Waves Ship Positions

Magnolia State

Owner: Crowley Petroleum Services, Inc., Jacksonville, FL. More information available from US FCC via Universal Licensing System and Coast Guard Vessel Documentation Center.

Last reported at 2018-Jul-21 23:20 UTC. Time now 2018-Jul-22 06:52 UTC.
Position N 25°14' W 080°05'.

Length 186 m; draft 8.6 m.

Type: Tanker. MMSI: 338302000.

Date/timePositionNaut miles runAvg speedWind from/ knotsBaromVisibWave heightAir tempDewpointWater temp
2018-Jul-21 23:20N 25°14' W 080°05'511.8
2018-Jul-21 22:56N 25°19' W 080°03'511.5
2018-Jul-21 22:30N 25°24' W 080°02'611.5
2018-Jul-21 22:00N 25°29' W 080°01'611.4
2018-Jul-21 21:30N 25°35' W 080°01'611.1
2018-Jul-21 21:00N 25°40' W 080°01'510.9
2018-Jul-21 20:30N 25°46' W 080°01'510.6
2018-Jul-21 20:00N 25°51' W 080°00'510.7
2018-Jul-21 19:30N 25°56' W 079°60'510.8
2018-Jul-21 19:00N 26°02' W 079°59'510.8
2018-Jul-21 18:30N 26°07' W 079°59'510.8
2018-Jul-21 18:00N 26°13' W 079°58'510.7
2018-Jul-21 17:30N 26°18' W 079°57'510.3
2018-Jul-21 17:00N 26°23' W 079°57'510.4
2018-Jul-21 16:30N 26°28' W 079°55'510.4
2018-Jul-21 16:00N 26°33' W 079°55'610.5
2018-Jul-21 15:28N 26°39' W 079°54'510.7
2018-Jul-21 15:00N 26°44' W 079°53'510.7
2018-Jul-21 14:30N 26°49' W 079°53'1110.6
2018-Jul-21 13:30N 26°60' W 079°52'510.5
2018-Jul-21 13:00N 27°05' W 079°52'1010.6
2018-Jul-21 12:02N 27°15' W 079°54'410.4
2018-Jul-21 11:41N 27°19' W 079°54'210.4
2018-Jul-21 11:30N 27°21' W 079°55'1612.3
2018-Jul-21 10:13N 27°36' W 079°58'315.0
2018-Jul-21 10:00N 27°39' W 079°58'59413.0
2018-Jul-19 12:15N 36°39' W 075°03'415.6
2018-Jul-19 12:00N 36°43' W 075°03'815.6
2018-Jul-19 11:30N 36°50' W 075°02'815.7
2018-Jul-19 11:00N 36°58' W 075°00'815.5
2018-Jul-19 10:30N 37°06' W 074°58'915.4
2018-Jul-19 09:56N 37°14' W 074°55'815.5
2018-Jul-19 09:25N 37°22' W 074°53'715.6
2018-Jul-19 08:58N 37°29' W 074°51'915.6
2018-Jul-19 08:22N 37°38' W 074°48'715.7
2018-Jul-19 07:53N 37°45' W 074°46'615.5
2018-Jul-19 07:31N 37°51' W 074°44'815.4
2018-Jul-19 07:00N 37°58' W 074°42'815.2
2018-Jul-19 06:30N 38°06' W 074°40'714.8
2018-Jul-19 06:00N 38°13' W 074°39'714.3
2018-Jul-19 05:30N 38°20' W 074°40'714.6
2018-Jul-19 05:00N 38°27' W 074°44'714.4
2018-Jul-19 04:30N 38°33' W 074°49'714.4
2018-Jul-19 04:00N 38°39' W 074°54'914.4
2018-Jul-19 03:24N 38°46' W 075°01'513.2
2018-Jul-19 03:01N 38°50' W 075°04'510.8
2018-Jul-19 02:31N 38°55' W 075°06'612.4
2018-Jul-19 02:00N 39°01' W 075°09'713.4
2018-Jul-19 01:30N 39°07' W 075°13'714.5
2018-Jul-19 01:00N 39°13' W 075°18'815.3
2018-Jul-19 00:30N 39°19' W 075°24'815.3
2018-Jul-19 00:01N 39°25' W 075°31'713.4
2018-Jul-18 23:30N 39°31' W 075°33'713.2
2018-Jul-18 23:00N 39°38' W 075°34'612.5
2018-Jul-18 22:30N 39°43' W 075°30'610.9
2018-Jul-18 22:00N 39°48' W 075°26'4 9.2
2018-Jul-18 21:30N 39°50' W 075°21'5 9.4
2018-Jul-18 21:00N 39°51' W 075°15'2 3.8
2018-Jul-18 20:30N 39°52' W 075°13'0 0.0
2018-Jul-18 20:00N 39°52' W 075°13'0 0.0
2018-Jul-18 19:30N 39°52' W 075°13'0 0.0
2018-Jul-18 19:00N 39°52' W 075°13'0 0.0
2018-Jul-18 18:30N 39°52' W 075°13'0 0.0
2018-Jul-18 18:00N 39°52' W 075°13'0 0.0
2018-Jul-18 17:30N 39°52' W 075°13'0 0.0
2018-Jul-18 17:00N 39°52' W 075°13'0 0.0
2018-Jul-18 16:30N 39°52' W 075°13'0 0.0
2018-Jul-18 16:00N 39°52' W 075°13'0 0.0
2018-Jul-18 15:30N 39°52' W 075°13'0 0.0
2018-Jul-18 15:00N 39°52' W 075°13'0 0.0
2018-Jul-18 14:30N 39°52' W 075°13'0 0.0
2018-Jul-18 13:30N 39°52' W 075°13'0 0.0
2018-Jul-18 13:00N 39°52' W 075°13'0 0.0
2018-Jul-18 12:30N 39°52' W 075°13'0 0.0
2018-Jul-18 12:00N 39°52' W 075°13'0 0.0
2018-Jul-18 11:30N 39°52' W 075°13'0 0.0
2018-Jul-18 10:30N 39°52' W 075°13'0 0.0
2018-Jul-18 09:48N 39°52' W 075°13'0 0.0
2018-Jul-18 09:30N 39°52' W 075°13'0 0.0
2018-Jul-18 09:00N 39°52' W 075°13'0 0.0
2018-Jul-18 08:30N 39°52' W 075°13'0 0.0
2018-Jul-18 08:00N 39°52' W 075°13'0 0.0
2018-Jul-18 07:30N 39°52' W 075°13'0 0.0
2018-Jul-18 07:00N 39°52' W 075°13'0 0.0
2018-Jul-18 06:30N 39°52' W 075°13'0 0.0
2018-Jul-18 05:54N 39°52' W 075°13'0 0.0
2018-Jul-18 05:30N 39°52' W 075°13'0 0.0
2018-Jul-18 05:00N 39°52' W 075°13'0 0.0
2018-Jul-18 04:30N 39°52' W 075°13'0 0.0
2018-Jul-18 04:00N 39°52' W 075°13'0 0.0
2018-Jul-18 03:30N 39°52' W 075°13'0 0.0
2018-Jul-18 03:00N 39°52' W 075°13'0 0.0
2018-Jul-18 02:30N 39°52' W 075°13'0 0.0
2018-Jul-18 02:00N 39°52' W 075°13'0 0.0
2018-Jul-18 01:30N 39°52' W 075°13'0 0.0
2018-Jul-18 01:00N 39°52' W 075°13'0 0.0
2018-Jul-18 00:30N 39°52' W 075°13'0 0.0
2018-Jul-18 00:00N 39°52' W 075°13'0 0.0
2018-Jul-17 23:30N 39°52' W 075°13'0 0.0
2018-Jul-17 23:00N 39°52' W 075°13'0 0.0
2018-Jul-17 22:30N 39°52' W 075°13'0 0.0
2018-Jul-17 22:00N 39°52' W 075°13'0 0.0
2018-Jul-17 21:30N 39°52' W 075°13'0 0.0
2018-Jul-17 21:00N 39°52' W 075°13'0 0.1
2018-Jul-17 20:31N 39°52' W 075°13'1 2.3
2018-Jul-17 20:00N 39°51' W 075°14'4 8.4
2018-Jul-17 19:30N 39°51' W 075°20'4 9.1
2018-Jul-17 19:01N 39°48' W 075°25'510.5
2018-Jul-17 18:30N 39°45' W 075°30'5 9.6
2018-Jul-17 18:01N 39°40' W 075°32'611.2
2018-Jul-17 17:30N 39°35' W 075°33'713.7
2018-Jul-17 17:00N 39°28' W 075°34'713.8
2018-Jul-17 16:30N 39°23' W 075°28'714.0
2018-Jul-17 16:00N 39°17' W 075°22'713.7
2018-Jul-17 15:30N 39°12' W 075°17'713.9
2018-Jul-17 15:00N 39°06' W 075°12'713.8
2018-Jul-17 14:30N 38°60' W 075°08'713.8
2018-Jul-17 13:59N 38°53' W 075°05'611.2
2018-Jul-17 13:28N 38°48' W 075°03'510.0
2018-Jul-17 13:00N 38°45' W 074°58'611.1
2018-Jul-17 12:30N 38°41' W 074°53'612.0
2018-Jul-17 12:00N 38°36' W 074°49'5 9.5
2018-Jul-17 11:30N 38°31' W 074°51'1 0.4
2018-Jul-17 09:58N 38°31' W 074°51'0 0.1
2018-Jul-17 09:28N 38°31' W 074°51'0 0.0
2018-Jul-17 08:58N 38°31' W 074°51'0 0.0
2018-Jul-17 07:40N 38°31' W 074°51'0 0.1
2018-Jul-17 07:22N 38°31' W 074°51'0 0.0
2018-Jul-17 06:25N 38°31' W 074°51'0 0.0
2018-Jul-17 04:19N 38°31' W 074°51'0 0.0
2018-Jul-17 03:07N 38°31' W 074°51'0 0.0
2018-Jul-17 02:55N 38°31' W 074°52'0 0.0
2018-Jul-17 02:28N 38°31' W 074°52'0 0.0
2018-Jul-17 01:58N 38°31' W 074°52'0 0.0
2018-Jul-16 14:40N 38°31' W 074°52'0 0.0
2018-Jul-16 14:25N 38°31' W 074°52'0 0.0
2018-Jul-16 13:55N 38°31' W 074°52'0 0.0
2018-Jul-16 13:22N 38°31' W 074°52'0 0.0
2018-Jul-16 12:52N 38°31' W 074°52'0 0.0
2018-Jul-16 12:28N 38°31' W 074°52'0 0.0
2018-Jul-16 11:58N 38°31' W 074°52'0 0.0
2018-Jul-16 11:28N 38°31' W 074°51'0 0.1
2018-Jul-16 10:55N 38°31' W 074°51'0 0.2
2018-Jul-16 10:28N 38°31' W 074°51'0 0.1
2018-Jul-16 09:55N 38°31' W 074°51'0 0.1
2018-Jul-16 09:28N 38°31' W 074°51'0 0.0
2018-Jul-16 08:55N 38°31' W 074°51'0 0.0
2018-Jul-16 08:28N 38°31' W 074°51'0 0.0
2018-Jul-16 07:58N 38°31' W 074°51'0 0.0
2018-Jul-16 07:28N 38°31' W 074°51'0 0.0
2018-Jul-16 06:58N 38°31' W 074°51'0 0.1
2018-Jul-16 06:13N 38°31' W 074°51'0 0.1
2018-Jul-16 05:52N 38°31' W 074°51'0 0.1
2018-Jul-16 05:07N 38°31' W 074°51'0 0.1
2018-Jul-16 04:58N 38°31' W 074°51'0 0.1
2018-Jul-16 04:28N 38°31' W 074°51'0 0.1
2018-Jul-16 03:58N 38°31' W 074°51'0 0.1
2018-Jul-16 03:13N 38°31' W 074°51'0 0.0
2018-Jul-16 02:58N 38°31' W 074°51'0 0.0
2018-Jul-16 01:43N 38°31' W 074°52'0 0.0
2018-Jul-15 14:25N 38°31' W 074°52'0 0.0
2018-Jul-15 13:55N 38°31' W 074°52'0 0.0
2018-Jul-15 13:28N 38°31' W 074°52'0 0.0
2018-Jul-15 12:58N 38°31' W 074°52'0 0.0
2018-Jul-15 12:28N 38°31' W 074°52'0 0.0
2018-Jul-15 11:58N 38°31' W 074°52'0 0.0
2018-Jul-15 11:28N 38°31' W 074°52'0 0.0
2018-Jul-15 10:58N 38°31' W 074°51'0 0.0
2018-Jul-15 10:25N 38°31' W 074°51'0 0.1
2018-Jul-15 09:58N 38°31' W 074°51'0 0.1
2018-Jul-15 09:28N 38°31' W 074°51'0 0.1
2018-Jul-15 08:58N 38°31' W 074°51'0 0.1
2018-Jul-15 08:28N 38°31' W 074°51'0 0.1
2018-Jul-15 07:55N 38°31' W 074°51'0 0.1
2018-Jul-15 07:28N 38°31' W 074°51'0 0.0
2018-Jul-15 06:58N 38°31' W 074°51'0 0.0
2018-Jul-15 06:28N 38°31' W 074°51'0 0.1
2018-Jul-15 05:58N 38°31' W 074°51'0 0.1
2018-Jul-15 05:28N 38°31' W 074°51'0 0.1
2018-Jul-15 04:58N 38°31' W 074°51'0 0.1
2018-Jul-15 04:28N 38°31' W 074°51'0 0.1
2018-Jul-15 03:58N 38°31' W 074°51'0 0.1
2018-Jul-15 03:28N 38°31' W 074°51'0 0.0
2018-Jul-15 02:58N 38°31' W 074°51'0 0.1
2018-Jul-15 02:28N 38°31' W 074°51'0 0.0
2018-Jul-14 20:34N 38°31' W 074°52'0 0.3
2018-Jul-14 20:28N 38°31' W 074°51'0 0.3
2018-Jul-14 19:58N 38°31' W 074°51'0 0.1
2018-Jul-14 19:28N 38°31' W 074°51'0 0.0
2018-Jul-14 18:58N 38°31' W 074°51'0 0.1
2018-Jul-14 18:25N 38°31' W 074°51'0 0.5
2018-Jul-14 18:00N 38°31' W 074°51'3 5.8
2018-Jul-14 17:30N 38°32' W 074°48'4 7.7
2018-Jul-14 16:56N 38°30' W 074°43'4 9.3
2018-Jul-14 16:29N 38°26' W 074°40'510.6
2018-Jul-14 16:00N 38°21' W 074°40'510.4
2018-Jul-14 15:30N 38°16' W 074°39'510.4
2018-Jul-14 15:00N 38°11' W 074°39'1110.5
2018-Jul-14 14:00N 38°00' W 074°40'510.6
2018-Jul-14 13:30N 37°55' W 074°40'510.7
2018-Jul-14 13:00N 37°50' W 074°40'510.4
2018-Jul-14 12:30N 37°45' W 074°40'510.3
2018-Jul-14 12:00N 37°39' W 074°41'510.5
2018-Jul-14 11:30N 37°34' W 074°41'510.4
2018-Jul-14 11:00N 37°29' W 074°41'510.4
2018-Jul-14 10:29N 37°23' W 074°41'510.2
2018-Jul-14 10:00N 37°19' W 074°41'510.2
2018-Jul-14 09:30N 37°14' W 074°40'5 9.9
2018-Jul-14 09:00N 37°09' W 074°40'5 9.6
2018-Jul-14 08:29N 37°04' W 074°40'66114.6
2018-Jul-12 11:09N 26°54' W 079°43'417.6
2018-Jul-12 10:56N 26°51' W 079°44'3017.8
2018-Jul-12 09:17N 26°21' W 079°47'517.7
2018-Jul-12 08:58N 26°16' W 079°48'817.6
2018-Jul-12 08:30N 26°08' W 079°49'917.7
2018-Jul-12 08:00N 25°59' W 079°50'917.7
2018-Jul-12 07:30N 25°50' W 079°51'917.9
2018-Jul-12 07:00N 25°41' W 079°53'917.8
2018-Jul-12 06:30N 25°33' W 079°55'917.9
2018-Jul-12 06:00N 25°24' W 079°57'  

Dump ship's entire track history